Time;durP1;ratioP1;P1;durP2;ratioP2;P2;SDS_P1;SDS_P2;PMS_P1;PMS_P2;Temp;Humidity;BMP_temperature;BMP_pressure;BME280_temperature;BME280_humidity;BME280_pressure;Samples;Min_cycle;Max_cycle;Signal;HPM_P1;HPM_P2
2021/01/20 00:00:31;;;;;;;14.57;9.25;;;3.70;93.80;;;;;;4987266;28;20249;-63
2021/01/20 00:02:58;;;;;;;17.42;11.85;;;3.80;93.50;;;;;;4978875;28;20207;-61
2021/01/20 00:05:25;;;;;;;21.52;11.23;;;3.70;93.10;;;;;;4975330;28;20448;-63
2021/01/20 00:07:51;;;;;;;14.90;9.43;;;3.70;93.50;;;;;;4976395;28;20229;-62
2021/01/20 00:10:18;;;;;;;15.85;10.68;;;3.60;93.70;;;;;;4974863;28;20234;-62
2021/01/20 00:12:48;;;;;;;11.13;9.27;;;3.70;93.70;;;;;;4974065;28;20389;-63
2021/01/20 00:15:20;;;;;;;13.48;9.40;;;3.70;93.30;;;;;;4975307;28;20247;-62
2021/01/20 00:17:47;;;;;;;14.25;8.95;;;3.50;93.80;;;;;;4974036;28;20560;-62
2021/01/20 00:20:15;;;;;;;14.38;9.18;;;3.30;93.90;;;;;;4982666;28;20214;-62
2021/01/20 00:22:42;;;;;;;10.95;8.60;;;3.30;94.20;;;;;;4978355;28;20210;-62
2021/01/20 00:25:09;;;;;;;10.30;8.32;;;3.50;94.30;;;;;;4978775;28;20281;-62
2021/01/20 00:27:36;;;;;;;13.52;9.93;;;3.90;94.00;;;;;;4980944;28;20518;-62
2021/01/20 00:30:08;;;;;;;13.90;10.32;;;3.90;93.50;;;;;;4979484;28;20275;-62
2021/01/20 00:32:37;;;;;;;13.93;9.48;;;3.90;93.20;;;;;;4977280;28;20212;-62
2021/01/20 00:35:09;;;;;;;10.27;8.63;;;3.60;93.40;;;;;;4981387;28;20210;-63
2021/01/20 00:37:38;;;;;;;12.70;9.43;;;3.60;93.50;;;;;;4981280;28;20207;-63
2021/01/20 00:40:06;;;;;;;10.20;8.85;;;3.60;93.70;;;;;;4982801;28;20225;-62
2021/01/20 00:42:34;;;;;;;13.10;9.40;;;3.60;93.70;;;;;;4980657;28;20207;-61
2021/01/20 00:45:00;;;;;;;15.98;9.25;;;3.70;94.00;;;;;;4981788;28;20270;-63
2021/01/20 00:47:27;;;;;;;12.57;8.85;;;3.80;93.80;;;;;;4995410;28;20214;-62
2021/01/20 00:49:54;;;;;;;12.38;8.85;;;2.90;93.30;;;;;;4993008;28;20217;-62
2021/01/20 00:52:20;;;;;;;13.90;8.55;;;4.10;93.40;;;;;;4994022;28;20226;-64
2021/01/20 00:54:47;;;;;;;12.68;8.13;;;4.10;92.90;;;;;;4989306;28;20389;-63
2021/01/20 00:57:13;;;;;;;14.55;10.18;;;3.60;93.70;;;;;;4992877;28;20630;-63
2021/01/20 00:59:41;;;;;;;9.63;7.47;;;3.50;94.30;;;;;;4995881;28;20207;-63
2021/01/20 01:02:07;;;;;;;11.05;8.65;;;3.50;94.50;;;;;;4992789;28;20273;-63
2021/01/20 01:04:34;;;;;;;10.95;8.93;;;3.70;94.50;;;;;;4994846;28;20235;-62
2021/01/20 01:07:02;;;;;;;13.35;10.35;;;3.60;94.20;;;;;;4995582;28;20229;-62
2021/01/20 01:09:28;;;;;;;12.15;9.63;;;3.70;94.00;;;;;;4997226;28;20464;-62
2021/01/20 01:11:55;;;;;;;9.88;7.95;;;3.90;94.00;;;;;;4996264;28;20251;-62
2021/01/20 01:14:22;;;;;;;9.38;8.13;;;3.60;93.80;;;;;;4993238;28;20511;-62
2021/01/20 01:16:48;;;;;;;14.68;10.35;;;3.70;94.40;;;;;;4988433;28;20214;-62
2021/01/20 01:19:15;;;;;;;10.07;8.75;;;3.70;94.40;;;;;;4989218;28;20531;-62
2021/01/20 01:21:42;;;;;;;11.02;8.63;;;4.00;94.20;;;;;;4997681;28;20295;-62
2021/01/20 01:24:09;;;;;;;9.85;8.10;;;4.10;93.70;;;;;;4995639;28;20218;-63
2021/01/20 01:26:36;;;;;;;18.20;9.80;;;4.20;93.70;;;;;;4994184;28;20322;-62
2021/01/20 01:29:03;;;;;;;13.82;8.20;;;4.10;93.10;;;;;;4993363;28;20206;-62
2021/01/20 01:31:29;;;;;;;9.50;7.75;;;4.20;93.60;;;;;;4989160;28;20241;-63
2021/01/20 01:33:56;;;;;;;9.13;8.15;;;4.40;93.50;;;;;;4982976;28;20222;-62
2021/01/20 01:36:23;;;;;;;11.45;9.48;;;4.30;93.30;;;;;;4995751;28;20215;-63
2021/01/20 01:38:49;;;;;;;9.98;8.32;;;4.30;93.30;;;;;;4995375;28;20210;-63
2021/01/20 01:41:16;;;;;;;11.15;7.95;;;4.40;93.10;;;;;;4998399;28;20215;-63
2021/01/20 01:43:50;;;;;;;9.60;7.88;;;4.20;93.00;;;;;;4995930;28;20202;-63
2021/01/20 01:46:18;;;;;;;7.97;7.18;;;4.50;93.30;;;;;;4995059;28;20445;-63
2021/01/20 01:48:44;;;;;;;9.93;8.00;;;4.10;93.70;;;;;;4997121;28;20298;-63
2021/01/20 01:51:11;;;;;;;7.80;7.10;;;3.80;93.70;;;;;;4993612;28;20240;-63
2021/01/20 01:53:38;;;;;;;10.18;8.27;;;4.00;93.90;;;;;;4997805;28;20217;-63
2021/01/20 01:56:04;;;;;;;7.38;6.22;;;4.90;94.40;;;;;;4992585;28;20209;-63
2021/01/20 01:58:31;;;;;;;12.57;7.20;;;3.80;94.20;;;;;;4994714;28;20581;-63
2021/01/20 02:00:59;;;;;;;9.48;6.40;;;3.80;94.20;;;;;;4993289;28;20312;-63
2021/01/20 02:03:25;;;;;;;7.55;6.47;;;3.90;94.30;;;;;;4994973;28;20290;-63
2021/01/20 02:05:52;;;;;;;7.43;6.10;;;4.40;94.40;;;;;;4990622;28;20206;-63
2021/01/20 02:08:19;;;;;;;8.02;6.20;;;4.00;94.10;;;;;;4997847;28;20214;-63
2021/01/20 02:10:45;;;;;;;6.82;6.18;;;4.20;94.00;;;;;;4977903;28;20231;-63
2021/01/20 02:13:28;;;;;;;6.82;5.43;;;3.90;93.80;;;;;;4994315;28;20234;-63
2021/01/20 02:15:54;;;;;;;6.45;4.72;;;3.80;94.40;;;;;;4982245;28;20472;-63
2021/01/20 02:18:27;;;;;;;8.70;5.60;;;3.90;94.30;;;;;;4990037;28;20253;-63
2021/01/20 02:21:26;;;;;;;6.68;6.07;;;3.90;94.40;;;;;;4991637;28;20217;-63
2021/01/20 02:23:55;;;;;;;7.25;5.53;;;3.90;94.60;;;;;;4988933;28;20208;-63
2021/01/20 02:26:49;;;;;;;6.28;5.45;;;4.00;94.40;;;;;;4984281;28;20238;-63
2021/01/20 02:29:41;;;;;;;8.90;7.22;;;3.90;94.30;;;;;;4993617;28;20268;-63
2021/01/20 02:32:09;;;;;;;7.43;5.82;;;3.90;94.60;;;;;;4986453;28;20237;-62
2021/01/20 02:34:37;;;;;;;8.60;7.80;;;3.80;94.60;;;;;;4993955;28;20214;-62
2021/01/20 02:37:05;;;;;;;8.45;7.53;;;3.60;94.80;;;;;;4995970;28;20227;-63
2021/01/20 02:39:33;;;;;;;9.68;8.48;;;3.80;95.00;;;;;;4994360;28;20206;-63
2021/01/20 02:42:04;;;;;;;7.75;6.88;;;3.60;95.00;;;;;;4986739;28;20214;-63
2021/01/20 02:44:35;;;;;;;10.25;8.75;;;3.60;95.20;;;;;;4996715;28;20234;-63
2021/01/20 02:47:05;;;;;;;10.95;8.90;;;3.50;95.40;;;;;;4986171;28;20207;-63
2021/01/20 02:49:32;;;;;;;12.38;9.18;;;3.50;95.50;;;;;;4986420;28;20265;-63
2021/01/20 02:52:07;;;;;;;11.05;9.73;;;3.80;95.30;;;;;;4983384;28;20234;-63
2021/01/20 02:54:36;;;;;;;14.10;10.10;;;4.00;95.10;;;;;;4980823;28;20219;-63
2021/01/20 02:57:05;;;;;;;10.50;8.30;;;4.20;94.80;;;;;;4990314;28;20219;-63
2021/01/20 02:59:33;;;;;;;10.25;9.07;;;4.40;94.50;;;;;;4984831;28;20211;-62
2021/01/20 03:02:05;;;;;;;12.05;9.00;;;4.50;93.80;;;;;;4986990;28;20298;-63
2021/01/20 03:04:34;;;;;;;11.15;9.48;;;4.50;93.70;;;;;;4984901;28;20247;-63
2021/01/20 03:07:01;;;;;;;11.82;9.80;;;4.30;93.80;;;;;;4988930;28;20212;-63
2021/01/20 03:09:28;;;;;;;11.93;9.82;;;4.30;93.80;;;;;;4973833;28;20407;-63
2021/01/20 03:11:54;;;;;;;13.90;11.18;;;4.20;94.20;;;;;;4987420;28;20260;-63
2021/01/20 03:14:24;;;;;;;13.30;10.05;;;3.40;93.90;;;;;;4982085;28;20229;-63
2021/01/20 03:16:51;;;;;;;13.38;10.50;;;4.10;94.30;;;;;;4992642;28;20250;-63
2021/01/20 03:19:17;;;;;;;10.90;9.40;;;4.30;94.30;;;;;;4978705;28;20224;-63
2021/01/20 03:21:44;;;;;;;9.88;8.50;;;4.60;94.00;;;;;;4982298;28;20218;-63
2021/01/20 03:24:10;;;;;;;9.30;8.38;;;4.50;93.60;;;;;;4987278;28;20213;-62
2021/01/20 03:26:37;;;;;;;11.52;9.95;;;4.30;93.30;;;;;;4988826;28;20213;-64
2021/01/20 03:29:04;;;;;;;13.93;8.63;;;4.60;93.70;;;;;;4985281;28;20213;-62
2021/01/20 03:31:30;;;;;;;13.25;10.15;;;4.20;93.60;;;;;;4985225;28;20239;-63
2021/01/20 03:33:58;;;;;;;18.10;12.88;;;3.90;93.90;;;;;;4995794;28;20200;-63
2021/01/20 03:36:25;;;;;;;14.35;10.90;;;4.10;94.10;;;;;;4982040;28;20237;-63
2021/01/20 03:38:52;;;;;;;17.60;12.90;;;4.20;93.70;;;;;;4985929;28;20215;-63
2021/01/20 03:41:19;;;;;;;12.43;10.60;;;4.20;93.60;;;;;;4983750;28;20220;-63
2021/01/20 03:43:46;;;;;;;12.93;11.13;;;4.00;94.20;;;;;;4994243;28;20210;-64
2021/01/20 03:46:12;;;;;;;14.45;10.40;;;4.10;94.20;;;;;;4980886;28;20215;-63
2021/01/20 03:48:39;;;;;;;11.32;10.13;;;4.00;94.00;;;;;;4973742;28;20519;-63
2021/01/20 03:51:05;;;;;;;13.57;9.88;;;4.00;93.90;;;;;;4976979;28;20236;-63
2021/01/20 03:53:32;;;;;;;14.55;9.55;;;4.30;93.90;;;;;;4981703;28;20721;-63
2021/01/20 03:55:58;;;;;;;13.15;9.60;;;4.40;93.50;;;;;;4979616;28;20271;-63
2021/01/20 03:58:25;;;;;;;15.02;10.80;;;4.60;93.40;;;;;;4983949;28;20221;-63
2021/01/20 04:00:52;;;;;;;15.98;12.40;;;4.50;92.90;;;;;;4994080;28;20219;-63
2021/01/20 04:03:18;;;;;;;19.50;13.35;;;4.30;93.20;;;;;;4995065;28;20629;-63
2021/01/20 04:05:45;;;;;;;16.83;12.48;;;4.30;93.20;;;;;;4986875;28;20212;-63
2021/01/20 04:08:11;;;;;;;19.15;12.55;;;4.20;93.50;;;;;;4982251;28;20214;-63
2021/01/20 04:10:41;;;;;;;16.80;13.50;;;4.10;93.80;;;;;;4995073;28;20241;-63
2021/01/20 04:13:08;;;;;;;18.98;14.40;;;4.30;93.50;;;;;;4986899;28;20247;-63
2021/01/20 04:15:34;;;;;;;20.05;13.80;;;4.00;93.40;;;;;;4990484;28;20247;-63
2021/01/20 04:18:01;;;;;;;18.88;14.82;;;4.10;93.70;;;;;;4998840;28;20230;-63
2021/01/20 04:20:28;;;;;;;23.25;15.35;;;3.90;93.70;;;;;;4991683;28;20246;-63
2021/01/20 04:22:54;;;;;;;22.67;16.73;;;3.70;94.00;;;;;;4982245;28;20493;-64
2021/01/20 04:25:21;;;;;;;16.10;12.98;;;3.90;94.60;;;;;;4981932;28;20210;-64
2021/01/20 04:27:47;;;;;;;14.88;10.38;;;3.60;94.80;;;;;;4991235;28;20274;-64
2021/01/20 04:30:14;;;;;;;15.00;10.40;;;3.60;94.50;;;;;;4999227;28;20615;-64
2021/01/20 04:32:41;;;;;;;12.52;10.18;;;3.70;94.50;;;;;;4992698;28;20749;-64
2021/01/20 04:35:09;;;;;;;15.02;11.55;;;3.70;94.20;;;;;;5004324;28;20210;-64
2021/01/20 04:37:35;;;;;;;13.90;11.38;;;3.70;93.90;;;;;;5000877;28;20215;-64
2021/01/20 04:40:03;;;;;;;12.77;10.55;;;3.20;94.60;;;;;;4996290;28;20226;-64
2021/01/20 04:42:31;;;;;;;15.32;11.15;;;2.70;94.90;;;;;;4996967;28;20213;-64
2021/01/20 04:44:59;;;;;;;12.45;9.73;;;3.20;95.10;;;;;;4987418;28;20230;-65
2021/01/20 04:47:28;;;;;;;18.75;13.32;;;3.20;94.90;;;;;;4996936;28;20212;-64
2021/01/20 04:49:55;;;;;;;13.98;10.63;;;3.30;95.30;;;;;;4996322;28;20213;-64
2021/01/20 04:52:23;;;;;;;13.02;10.65;;;3.20;95.00;;;;;;4998489;28;20238;-64
2021/01/20 04:54:50;;;;;;;11.18;9.35;;;3.30;94.90;;;;;;4990506;28;20210;-64
2021/01/20 04:57:17;;;;;;;13.55;9.85;;;3.10;95.10;;;;;;4983197;28;20577;-64
2021/01/20 04:59:44;;;;;;;14.10;10.02;;;3.00;95.50;;;;;;4981205;28;20295;-64
2021/01/20 05:02:12;;;;;;;13.70;10.63;;;2.90;95.70;;;;;;4998558;28;20220;-65
2021/01/20 05:04:41;;;;;;;10.50;9.40;;;2.80;95.80;;;;;;5000920;28;20233;-65
2021/01/20 05:07:09;;;;;;;11.55;10.35;;;2.80;96.10;;;;;;4988315;28;20249;-65
2021/01/20 05:09:36;;;;;;;17.02;10.65;;;3.00;96.00;;;;;;4994084;28;20210;-65
2021/01/20 05:12:02;;;;;;;16.70;10.40;;;2.80;96.00;;;;;;4993653;28;20259;-65
2021/01/20 05:14:29;;;;;;;13.13;9.93;;;2.80;95.90;;;;;;4986131;28;20198;-65
2021/01/20 05:17:06;;;;;;;12.38;11.05;;;2.90;96.00;;;;;;5000337;28;20220;-65
2021/01/20 05:19:42;;;;;;;15.10;11.38;;;3.00;95.90;;;;;;4985955;28;20206;-65
2021/01/20 05:22:11;;;;;;;14.35;11.80;;;3.00;95.60;;;;;;4988770;28;20430;-65
2021/01/20 05:24:39;;;;;;;14.85;13.25;;;3.30;95.70;;;;;;4998623;28;20544;-65
2021/01/20 05:27:06;;;;;;;13.05;11.65;;;2.80;95.50;;;;;;4999106;28;20202;-65
2021/01/20 05:29:33;;;;;;;14.13;12.02;;;2.90;95.70;;;;;;4997445;28;20211;-65
2021/01/20 05:32:18;;;;;;;11.40;9.15;;;2.90;95.70;;;;;;4991287;28;20236;-66
2021/01/20 05:35:04;;;;;;;13.27;11.30;;;2.90;95.90;;;;;;5004178;28;20432;-64
2021/01/20 05:37:31;;;;;;;14.55;11.60;;;2.80;96.10;;;;;;4993051;28;20456;-64
2021/01/20 05:40:13;;;;;;;15.98;12.15;;;2.80;96.10;;;;;;4999669;28;20388;-64
2021/01/20 05:42:53;;;;;;;14.23;10.73;;;2.60;96.30;;;;;;4998799;28;20221;-65
2021/01/20 05:45:22;;;;;;;15.57;12.68;;;2.60;96.30;;;;;;4999207;28;20526;-64
2021/01/20 05:48:04;;;;;;;26.35;17.13;;;2.50;96.30;;;;;;4995422;28;20203;-64
2021/01/20 05:50:32;;;;;;;21.85;17.42;;;2.50;96.60;;;;;;4989750;28;20297;-65
2021/01/20 05:53:17;;;;;;;23.20;16.40;;;3.00;96.70;;;;;;4998032;28;20236;-66
2021/01/20 05:56:01;;;;;;;22.70;16.42;;;2.70;97.10;;;;;;4985592;28;20209;-65
2021/01/20 05:58:40;;;;;;;21.60;15.95;;;2.90;96.70;;;;;;4996542;28;20209;-65
2021/01/20 06:01:10;;;;;;;23.23;15.98;;;2.90;96.50;;;;;;4991802;28;20440;-65
2021/01/20 06:03:38;;;;;;;20.75;14.70;;;3.00;96.40;;;;;;4996000;28;20432;-66
2021/01/20 06:06:06;;;;;;;19.33;14.18;;;3.00;96.20;;;;;;4996309;28;20548;-65
2021/01/20 06:08:34;;;;;;;23.35;15.32;;;2.70;96.40;;;;;;4996997;28;20528;-65
2021/01/20 06:11:02;;;;;;;19.23;15.65;;;2.80;96.70;;;;;;4998084;28;20235;-65
2021/01/20 06:13:29;;;;;;;24.92;16.10;;;3.00;96.50;;;;;;4995652;28;20253;-66
2021/01/20 06:16:20;;;;;;;20.73;15.90;;;3.10;96.40;;;;;;4996589;28;20555;-66
2021/01/20 06:19:02;;;;;;;22.00;14.27;;;3.00;96.30;;;;;;4997540;28;20313;-66
2021/01/20 06:21:30;;;;;;;21.10;14.43;;;3.10;96.00;;;;;;4994614;28;20272;-66
2021/01/20 06:24:26;;;;;;;19.60;14.80;;;3.30;96.10;;;;;;4993457;28;20260;-66
2021/01/20 06:27:04;;;;;;;20.63;16.20;;;3.30;95.70;;;;;;4994108;28;20217;-66
2021/01/20 06:29:36;;;;;;;21.05;15.32;;;3.70;95.50;;;;;;4998585;28;20209;-66
2021/01/20 06:32:04;;;;;;;23.90;16.67;;;3.60;94.80;;;;;;4999213;28;20441;-66
2021/01/20 06:34:31;;;;;;;21.35;14.63;;;3.50;94.80;;;;;;4991492;28;20229;-66
2021/01/20 06:36:58;;;;;;;24.10;15.90;;;3.60;94.60;;;;;;4998420;28;20272;-66
2021/01/20 06:39:27;;;;;;;24.30;16.42;;;3.40;94.80;;;;;;4997658;28;20744;-67
2021/01/20 06:41:58;;;;;;;27.38;16.48;;;3.50;94.90;;;;;;4996542;28;20213;-65
2021/01/20 06:44:26;;;;;;;26.75;18.40;;;3.50;94.70;;;;;;4987239;28;20215;-66
2021/01/20 06:46:55;;;;;;;21.70;15.85;;;3.40;94.70;;;;;;4998553;28;20200;-67
2021/01/20 06:49:32;;;;;;;24.15;15.75;;;3.50;94.70;;;;;;4985058;28;20414;-66
2021/01/20 06:52:13;;;;;;;19.45;13.32;;;3.50;94.70;;;;;;4992264;28;20229;-67
2021/01/20 06:54:44;;;;;;;19.00;12.35;;;3.60;94.50;;;;;;4983285;28;20210;-67
2021/01/20 06:57:30;;;;;;;18.02;13.43;;;3.50;94.30;;;;;;4980637;28;20211;-66
2021/01/20 07:00:15;;;;;;;21.20;14.73;;;3.70;94.40;;;;;;4985940;28;20218;-66
2021/01/20 07:03:03;;;;;;;19.45;13.90;;;3.60;94.30;;;;;;4982479;28;20215;-66
2021/01/20 07:05:38;;;;;;;18.30;14.35;;;3.40;94.30;;;;;;4963307;28;20307;-66
2021/01/20 07:08:09;;;;;;;16.02;12.63;;;3.50;94.50;;;;;;4972939;28;20199;-66
2021/01/20 07:11:03;;;;;;;17.48;13.82;;;3.60;94.80;;;;;;4992986;28;20250;-64
2021/01/20 07:13:33;;;;;;;20.95;14.18;;;3.60;94.10;;;;;;4978337;28;20435;-67
2021/01/20 07:16:01;;;;;;;23.13;15.95;;;3.60;94.40;;;;;;4985064;28;20212;-67
2021/01/20 07:18:27;;;;;;;19.98;13.88;;;3.70;94.20;;;;;;5000259;28;20245;-66
2021/01/20 07:20:55;;;;;;;23.00;15.63;;;3.60;94.00;;;;;;4986796;28;20218;-67
2021/01/20 07:23:22;;;;;;;18.08;13.73;;;3.70;94.30;;;;;;4979504;28;20212;-66
2021/01/20 07:25:50;;;;;;;20.45;13.45;;;4.00;94.10;;;;;;4979273;28;20208;-66
2021/01/20 07:28:19;;;;;;;17.90;13.10;;;3.70;94.00;;;;;;4980543;28;20262;-65
2021/01/20 07:30:46;;;;;;;22.13;14.93;;;3.70;93.90;;;;;;4980429;28;20207;-66
2021/01/20 07:33:18;;;;;;;18.65;14.40;;;3.90;94.00;;;;;;4981933;28;20208;-66
2021/01/20 07:35:45;;;;;;;17.23;14.07;;;4.00;93.60;;;;;;4981509;28;20208;-68
2021/01/20 07:38:13;;;;;;;17.42;12.60;;;4.10;93.40;;;;;;4993214;28;20207;-67
2021/01/20 07:40:43;;;;;;;21.90;14.40;;;4.10;93.00;;;;;;4992480;28;20218;-67
2021/01/20 07:43:30;;;;;;;20.13;13.68;;;4.10;92.90;;;;;;4990333;28;20207;-67
2021/01/20 07:45:56;;;;;;;23.63;14.20;;;4.10;93.00;;;;;;4991439;28;20344;-67
2021/01/20 07:48:30;;;;;;;24.15;16.15;;;4.10;93.00;;;;;;4993256;28;20212;-68
2021/01/20 07:50:58;;;;;;;20.98;13.25;;;4.20;93.00;;;;;;4992550;28;20529;-66
2021/01/20 07:53:25;;;;;;;20.40;13.77;;;4.20;92.60;;;;;;4982787;28;20204;-67
2021/01/20 07:55:54;;;;;;;18.20;13.38;;;4.20;92.80;;;;;;4987150;28;20780;-67
2021/01/20 07:58:30;;;;;;;23.10;15.43;;;4.20;92.70;;;;;;4989420;28;20276;-66
2021/01/20 08:00:57;;;;;;;19.48;14.15;;;4.40;92.60;;;;;;4979749;28;20209;-67
2021/01/20 08:03:34;;;;;;;21.77;13.07;;;4.60;92.40;;;;;;4980863;28;20240;-68
2021/01/20 08:06:08;;;;;;;21.05;14.40;;;4.80;91.50;;;;;;4982225;28;20270;-66
2021/01/20 08:08:55;;;;;;;19.92;13.68;;;5.00;91.20;;;;;;4980507;28;20512;-67
2021/01/20 08:11:30;;;;;;;25.83;16.67;;;5.20;90.60;;;;;;4989110;28;20736;-67
2021/01/20 08:14:00;;;;;;;24.42;16.40;;;5.20;90.50;;;;;;4983556;28;20551;-68
2021/01/20 08:16:28;;;;;;;27.77;14.18;;;5.20;90.40;;;;;;4991774;28;20213;-67
2021/01/20 08:18:55;;;;;;;18.48;14.38;;;5.10;90.70;;;;;;4987904;28;20384;-68
2021/01/20 08:21:22;;;;;;;19.75;14.57;;;5.10;90.90;;;;;;4976065;28;20216;-66
2021/01/20 08:23:53;;;;;;;20.60;15.60;;;5.20;90.90;;;;;;4983070;28;20648;-68
2021/01/20 08:26:24;;;;;;;20.80;12.45;;;5.10;90.70;;;;;;4978937;28;20225;-67
2021/01/20 08:29:09;;;;;;;12.48;10.35;;;5.10;90.70;;;;;;4979986;28;20272;-67
2021/01/20 08:31:39;;;;;;;16.67;11.50;;;5.00;90.80;;;;;;4981425;28;20237;-68
2021/01/20 08:34:19;;;;;;;16.02;11.52;;;5.00;90.90;;;;;;4979643;28;20229;-67
2021/01/20 08:37:07;;;;;;;15.75;11.63;;;4.90;91.20;;;;;;4980678;28;20292;-68
2021/01/20 08:39:38;;;;;;;18.10;12.15;;;5.00;91.10;;;;;;4984990;28;20214;-68
2021/01/20 08:42:28;;;;;;;20.02;12.85;;;5.10;90.70;;;;;;4980184;28;20209;-70
2021/01/20 08:45:26;;;;;;;17.35;11.65;;;5.10;90.80;;;;;;4980464;28;20214;-68
2021/01/20 08:48:05;;;;;;;14.20;10.77;;;5.10;90.80;;;;;;4982997;28;20241;-68
2021/01/20 08:50:37;;;;;;;12.65;10.23;;;4.50;90.60;;;;;;4982490;28;20303;-68
2021/01/20 08:53:13;;;;;;;12.32;10.43;;;5.30;90.40;;;;;;4983299;28;20233;-68
2021/01/20 08:55:49;;;;;;;12.35;10.20;;;5.30;90.30;;;;;;4985992;28;20513;-68
2021/01/20 08:58:15;;;;;;;17.40;10.05;;;5.40;90.30;;;;;;4996310;28;20209;-69
2021/01/20 09:00:43;;;;;;;13.10;10.02;;;5.90;89.70;;;;;;4998199;28;20403;-72
2021/01/20 09:03:17;;;;;;;12.30;9.32;;;6.20;87.60;;;;;;4983874;28;20220;-71
2021/01/20 09:05:45;;;;;;;12.45;8.55;;;6.40;86.60;;;;;;4986557;28;20296;-71
2021/01/20 09:08:13;;;;;;;12.50;9.52;;;6.90;85.70;;;;;;4980884;28;20210;-71
2021/01/20 09:10:43;;;;;;;16.23;9.60;;;7.40;81.70;;;;;;4980654;28;20217;-71
2021/01/20 09:13:11;;;;;;;13.35;8.98;;;7.60;80.30;;;;;;4986689;28;20251;-71
2021/01/20 09:15:39;;;;;;;12.20;9.10;;;7.40;80.90;;;;;;4972609;28;20411;-72
2021/01/20 09:18:06;;;;;;;10.18;8.60;;;6.90;81.80;;;;;;4987663;28;20252;-71
2021/01/20 09:20:34;;;;;;;13.27;8.15;;;6.60;83.00;;;;;;4997762;28;20206;-71
2021/01/20 09:23:05;;;;;;;12.32;9.00;;;6.30;84.60;;;;;;4991570;28;20236;-71
2021/01/20 09:25:31;;;;;;;12.50;7.57;;;6.00;85.40;;;;;;4990897;28;20213;-71
2021/01/20 09:27:58;;;;;;;12.38;7.55;;;6.00;85.30;;;;;;4986672;28;20511;-71
2021/01/20 09:30:25;;;;;;;11.85;8.02;;;6.00;85.50;;;;;;4999606;28;20220;-71
2021/01/20 09:32:52;;;;;;;11.20;7.18;;;6.10;85.70;;;;;;4997251;28;20261;-72
2021/01/20 09:35:21;;;;;;;11.68;8.05;;;6.20;84.80;;;;;;4993954;28;20249;-72
2021/01/20 09:37:57;;;;;;;9.05;7.40;;;6.10;84.90;;;;;;4997940;28;20393;-71
2021/01/20 09:40:26;;;;;;;10.63;6.95;;;6.20;85.70;;;;;;4997740;28;20276;-71
2021/01/20 09:42:54;;;;;;;10.52;7.18;;;6.10;85.40;;;;;;4997126;28;20389;-71
2021/01/20 09:45:26;;;;;;;10.18;7.75;;;6.20;85.20;;;;;;4997674;28;20571;-72
2021/01/20 09:48:06;;;;;;;9.85;6.93;;;6.50;84.90;;;;;;4997443;28;20214;-71
2021/01/20 09:50:34;;;;;;;10.60;7.93;;;6.80;83.20;;;;;;4997930;28;20209;-72
2021/01/20 09:53:02;;;;;;;8.95;7.38;;;6.90;82.20;;;;;;4995588;28;20234;-72
2021/01/20 09:55:31;;;;;;;8.48;5.82;;;6.70;81.60;;;;;;4985094;28;20236;-71
2021/01/20 09:58:02;;;;;;;7.40;5.55;;;6.80;81.10;;;;;;4982303;28;20206;-71
2021/01/20 10:00:30;;;;;;;6.65;4.20;;;6.90;80.60;;;;;;5022402;28;20515;-72
2021/01/20 10:03:00;;;;;;;4.38;3.90;;;7.20;79.80;;;;;;4998326;28;20202;-71
2021/01/20 10:05:27;;;;;;;6.03;4.60;;;7.50;78.60;;;;;;4985295;28;20554;-73
2021/01/20 10:07:54;;;;;;;5.70;4.50;;;7.70;77.10;;;;;;4989950;28;20214;-72
2021/01/20 10:10:21;;;;;;;6.90;4.25;;;8.10;76.00;;;;;;4993793;28;20256;-72
2021/01/20 10:12:49;;;;;;;4.47;3.55;;;8.30;74.50;;;;;;4987582;28;20241;-73
2021/01/20 10:15:16;;;;;;;5.03;3.80;;;8.40;74.60;;;;;;4989883;28;20217;-72
2021/01/20 10:17:43;;;;;;;4.60;3.85;;;8.30;74.00;;;;;;4991437;28;20214;-73
2021/01/20 10:20:10;;;;;;;4.40;4.00;;;8.40;73.60;;;;;;4996598;28;20220;-72
2021/01/20 10:22:37;;;;;;;5.60;3.72;;;8.40;73.50;;;;;;4991234;28;20528;-72
2021/01/20 10:25:04;;;;;;;3.95;3.08;;;8.60;72.50;;;;;;4985254;28;20715;-72
2021/01/20 10:27:33;;;;;;;3.83;3.47;;;8.40;73.50;;;;;;4984027;28;20206;-72
2021/01/20 10:30:00;;;;;;;3.90;3.50;;;8.20;75.00;;;;;;4990898;28;20236;-73
2021/01/20 10:32:27;;;;;;;3.25;2.95;;;8.20;73.80;;;;;;4978347;28;20397;-74
2021/01/20 10:34:54;;;;;;;4.60;3.60;;;8.00;74.20;;;;;;4984350;28;20198;-74
2021/01/20 10:37:21;;;;;;;6.20;4.05;;;7.90;75.20;;;;;;4990813;28;20219;-74
2021/01/20 10:39:47;;;;;;;7.75;5.13;;;7.60;75.20;;;;;;5007188;28;20205;-74
2021/01/20 10:42:14;;;;;;;7.55;4.47;;;7.60;76.90;;;;;;4996222;28;20217;-73
2021/01/20 10:44:41;;;;;;;9.57;5.05;;;7.60;75.70;;;;;;4998768;28;20245;-73
2021/01/20 10:47:07;;;;;;;10.68;5.38;;;7.70;76.40;;;;;;4987584;28;20269;-74
2021/01/20 10:49:34;;;;;;;11.18;7.05;;;7.80;76.00;;;;;;4993066;28;20240;-73
2021/01/20 10:52:01;;;;;;;7.28;6.57;;;7.70;76.40;;;;;;4997939;28;20238;-73
2021/01/20 10:54:28;;;;;;;8.73;5.35;;;7.90;76.80;;;;;;4989497;28;20217;-72
2021/01/20 10:56:54;;;;;;;6.35;4.50;;;8.20;74.90;;;;;;4992036;28;20411;-72
2021/01/20 10:59:21;;;;;;;4.85;4.40;;;8.10;73.80;;;;;;4994014;28;20209;-72
2021/01/20 11:01:48;;;;;;;5.55;4.45;;;8.10;74.70;;;;;;4997016;28;20209;-71
2021/01/20 11:04:17;;;;;;;5.78;3.55;;;8.10;73.20;;;;;;4991431;28;20226;-73
2021/01/20 11:06:44;;;;;;;7.50;3.97;;;8.00;73.80;;;;;;4993270;28;20207;-73
2021/01/20 11:09:11;;;;;;;5.80;4.13;;;8.00;74.60;;;;;;4980024;28;20500;-72
2021/01/20 11:11:37;;;;;;;5.07;3.72;;;8.10;73.50;;;;;;4986276;28;20229;-72
2021/01/20 11:14:04;;;;;;;4.45;3.08;;;8.20;73.40;;;;;;4954919;29;20450;-72
2021/01/20 11:16:30;;;;;;;3.40;3.03;;;8.10;72.90;;;;;;4954718;28;20208;-72
2021/01/20 11:18:57;;;;;;;3.78;3.30;;;8.20;73.00;;;;;;4949434;28;20238;-72
2021/01/20 11:21:25;;;;;;;5.03;3.53;;;8.40;72.80;;;;;;4943363;28;20214;-71
2021/01/20 11:23:51;;;;;;;5.07;3.45;;;8.60;71.80;;;;;;4944815;28;20207;-71
2021/01/20 11:26:18;;;;;;;3.42;3.13;;;8.40;71.40;;;;;;4938353;28;20216;-71
2021/01/20 11:28:44;;;;;;;3.90;3.50;;;8.50;71.40;;;;;;4941669;28;20223;-72
2021/01/20 11:31:12;;;;;;;4.78;3.60;;;8.60;70.40;;;;;;4947426;28;20213;-72
2021/01/20 11:33:39;;;;;;;5.65;3.22;;;8.50;71.70;;;;;;4947951;29;20216;-72
2021/01/20 11:36:06;;;;;;;5.75;3.97;;;8.50;71.50;;;;;;4954605;28;20206;-71
2021/01/20 11:38:34;;;;;;;4.30;3.80;;;8.30;71.00;;;;;;4941089;28;20208;-71
2021/01/20 11:41:00;;;;;;;5.88;4.55;;;8.10;72.60;;;;;;4950114;29;20211;-70
2021/01/20 11:43:27;;;;;;;6.03;3.55;;;8.10;72.80;;;;;;4951905;29;20208;-71
2021/01/20 11:45:53;;;;;;;4.38;3.92;;;8.10;72.40;;;;;;4945721;28;20528;-71
2021/01/20 11:48:20;;;;;;;5.03;3.95;;;8.40;72.10;;;;;;4943017;29;20211;-71
2021/01/20 11:50:47;;;;;;;4.32;3.53;;;8.60;72.00;;;;;;4936430;28;20282;-70
2021/01/20 11:53:21;;;;;;;6.20;3.58;;;8.70;70.60;;;;;;4949631;29;20541;-70
2021/01/20 11:55:48;;;;;;;3.45;3.00;;;8.90;69.30;;;;;;4944736;28;20211;-71
2021/01/20 11:58:14;;;;;;;5.55;3.17;;;8.90;70.70;;;;;;4941674;29;20533;-72
2021/01/20 12:00:41;;;;;;;3.72;3.13;;;9.10;68.60;;;;;;4946896;28;20219;-72
2021/01/20 12:03:08;;;;;;;8.48;2.70;;;9.20;70.10;;;;;;4946015;28;20443;-71
2021/01/20 12:05:35;;;;;;;6.65;3.50;;;9.10;68.30;;;;;;4953115;29;20550;-72
2021/01/20 12:08:02;;;;;;;4.25;3.38;;;8.90;68.70;;;;;;4950137;28;20208;-72
2021/01/20 12:10:29;;;;;;;3.60;3.30;;;8.90;68.70;;;;;;4950716;28;20209;-72
2021/01/20 12:12:56;;;;;;;6.68;3.25;;;8.80;70.30;;;;;;4973131;28;20567;-71
2021/01/20 12:15:23;;;;;;;3.65;3.10;;;8.50;70.60;;;;;;4991875;28;20420;-71
2021/01/20 12:17:50;;;;;;;4.70;3.22;;;8.60;70.30;;;;;;4991972;28;20521;-71
2021/01/20 12:20:17;;;;;;;4.15;3.22;;;8.70;70.10;;;;;;4996853;28;20281;-70
2021/01/20 12:22:43;;;;;;;3.80;3.50;;;8.70;69.30;;;;;;4999825;28;20220;-71
2021/01/20 12:25:10;;;;;;;4.55;2.60;;;8.70;69.90;;;;;;4984424;28;20531;-70
2021/01/20 12:27:39;;;;;;;6.22;3.45;;;8.70;70.50;;;;;;4996325;28;20274;-70
2021/01/20 12:30:07;;;;;;;4.47;3.45;;;8.50;71.20;;;;;;4999415;28;20210;-70
2021/01/20 12:32:34;;;;;;;4.47;3.72;;;8.50;70.60;;;;;;4996985;28;20300;-70
2021/01/20 12:35:00;;;;;;;4.40;3.35;;;8.60;70.40;;;;;;4995706;28;20225;-71
2021/01/20 12:37:27;;;;;;;4.05;3.15;;;8.60;70.70;;;;;;4999449;28;20410;-70
2021/01/20 12:39:54;;;;;;;4.20;3.72;;;8.40;70.50;;;;;;4996337;28;20237;-70
2021/01/20 12:42:20;;;;;;;6.53;4.18;;;8.40;71.30;;;;;;4983508;28;20214;-71
2021/01/20 12:44:47;;;;;;;6.72;3.53;;;8.50;70.10;;;;;;5001774;28;20248;-72
2021/01/20 12:47:16;;;;;;;6.88;3.20;;;8.30;70.60;;;;;;5001463;28;20210;-71
2021/01/20 12:49:43;;;;;;;7.15;4.47;;;8.00;72.60;;;;;;4989282;28;20214;-70
2021/01/20 12:52:10;;;;;;;8.07;4.32;;;8.10;71.30;;;;;;5001539;28;20254;-70
2021/01/20 12:54:38;;;;;;;10.95;4.15;;;8.20;71.80;;;;;;4990522;28;20211;-71
2021/01/20 12:57:05;;;;;;;9.02;4.38;;;8.20;71.30;;;;;;4980726;28;20386;-71